createdAt,value
2017-12-31T00:00:06.412Z,12.96
2017-12-31T00:02:34.682Z,12.99
2017-12-31T00:05:06.181Z,12.96
2017-12-31T00:07:34.455Z,12.95
2017-12-31T00:10:06.125Z,12.96
2017-12-31T00:12:34.411Z,12.85
2017-12-31T00:15:08.480Z,12.89
2017-12-31T00:17:36.776Z,12.82
2017-12-31T00:20:06.792Z,12.87
2017-12-31T00:22:35.536Z,12.75
2017-12-31T00:25:07.417Z,12.75
2017-12-31T00:27:35.721Z,12.75
2017-12-31T00:30:08.229Z,12.78
2017-12-31T00:32:36.535Z,12.74
2017-12-31T00:35:07.882Z,12.82
2017-12-31T00:37:36.168Z,12.54
2017-12-31T00:40:07.372Z,12.52
2017-12-31T00:42:35.641Z,12.40
2017-12-31T00:45:06.966Z,12.35
2017-12-31T00:47:35.251Z,12.14
2017-12-31T00:50:06.508Z,12.09
2017-12-31T00:52:35.346Z,11.99
2017-12-31T00:55:07.284Z,11.93
2017-12-31T00:57:36.080Z,12.04
2017-12-31T01:00:07.908Z,12.06
2017-12-31T01:02:37.379Z,12.09
2017-12-31T01:05:06.375Z,12.07
2017-12-31T01:07:34.652Z,12.14
2017-12-31T01:10:06.301Z,11.93
2017-12-31T01:12:34.577Z,11.86
2017-12-31T01:15:07.971Z,11.78
2017-12-31T01:17:36.430Z,11.67
2017-12-31T01:20:06.241Z,11.64
2017-12-31T01:22:34.545Z,11.62
2017-12-31T01:25:06.546Z,11.56
2017-12-31T01:27:34.813Z,11.58
2017-12-31T01:30:06.284Z,11.48
2017-12-31T01:32:34.552Z,11.50
2017-12-31T01:35:06.584Z,11.39
2017-12-31T01:37:35.380Z,11.40
2017-12-31T01:40:06.580Z,11.35
2017-12-31T01:42:35.048Z,11.35
2017-12-31T01:45:06.338Z,11.13
2017-12-31T01:47:34.615Z,11.22
2017-12-31T01:50:09.847Z,11.20
2017-12-31T01:52:38.131Z,11.03
2017-12-31T01:55:07.231Z,11.03
2017-12-31T01:57:35.508Z,11.07
2017-12-31T02:00:07.212Z,11.13
2017-12-31T02:02:35.816Z,10.85
2017-12-31T02:05:07.827Z,10.78
2017-12-31T02:07:36.095Z,10.93
2017-12-31T02:10:08.231Z,10.80
2017-12-31T02:12:36.511Z,10.72
2017-12-31T02:15:06.348Z,10.75
2017-12-31T02:17:34.866Z,10.82
2017-12-31T02:20:06.138Z,10.98
2017-12-31T02:22:34.412Z,11.06
2017-12-31T02:25:09.307Z,11.03
2017-12-31T02:27:37.573Z,11.08
2017-12-31T02:30:06.997Z,11.15
2017-12-31T02:32:35.254Z,11.22
2017-12-31T02:35:07.248Z,11.22
2017-12-31T02:37:35.540Z,11.26
2017-12-31T02:40:07.680Z,11.16
2017-12-31T02:42:35.946Z,11.00
2017-12-31T02:45:07.304Z,10.99
2017-12-31T02:47:35.673Z,11.05
2017-12-31T02:50:06.404Z,11.04
2017-12-31T02:52:34.781Z,10.91
2017-12-31T02:55:09.800Z,11.07
2017-12-31T02:57:38.078Z,11.15
2017-12-31T03:00:06.346Z,10.93
2017-12-31T03:02:34.628Z,11.02
2017-12-31T03:05:06.008Z,11.02
2017-12-31T03:07:34.296Z,11.07
2017-12-31T03:10:09.724Z,11.02
2017-12-31T03:12:38.007Z,10.96
2017-12-31T03:15:06.708Z,10.86
2017-12-31T03:17:34.996Z,10.92
2017-12-31T03:20:06.606Z,11.05
2017-12-31T03:22:34.885Z,11.00
2017-12-31T03:25:10.124Z,11.01
2017-12-31T03:27:38.415Z,11.03
2017-12-31T03:30:06.676Z,11.12
2017-12-31T03:32:34.988Z,11.04
2017-12-31T03:35:06.339Z,11.01
2017-12-31T03:37:34.622Z,11.28
2017-12-31T03:40:06.199Z,11.40
2017-12-31T03:42:34.484Z,11.60
2017-12-31T03:45:06.164Z,11.58
2017-12-31T03:47:34.980Z,11.73
2017-12-31T03:50:07.082Z,11.73
2017-12-31T03:52:35.345Z,11.82
2017-12-31T03:55:06.636Z,11.91
2017-12-31T03:57:34.903Z,12.03
2017-12-31T04:00:09.909Z,12.08
2017-12-31T04:02:38.424Z,12.08
2017-12-31T04:05:06.699Z,12.20
2017-12-31T04:07:34.970Z,12.22
2017-12-31T04:10:08.032Z,12.28
2017-12-31T04:12:36.437Z,12.30
2017-12-31T04:15:09.648Z,12.36
2017-12-31T04:17:37.904Z,12.46
2017-12-31T04:20:07.288Z,12.60
2017-12-31T04:22:35.795Z,12.56
2017-12-31T04:25:06.487Z,12.62
2017-12-31T04:27:34.774Z,12.66
2017-12-31T04:30:06.300Z,12.70
2017-12-31T04:32:34.589Z,12.87
2017-12-31T04:35:05.861Z,12.93
2017-12-31T04:37:34.152Z,13.02
2017-12-31T04:40:06.305Z,13.01
2017-12-31T04:42:34.913Z,13.09
2017-12-31T04:45:10.093Z,13.24
2017-12-31T04:47:38.373Z,13.26
2017-12-31T04:50:07.393Z,11.99
2017-12-31T04:52:35.829Z,13.28
2017-12-31T04:55:07.421Z,13.27
2017-12-31T04:57:35.692Z,13.32
2017-12-31T05:00:07.029Z,13.28
2017-12-31T05:02:35.304Z,13.35
2017-12-31T05:05:06.619Z,13.26
2017-12-31T05:07:34.934Z,13.41
2017-12-31T05:10:05.548Z,13.43
2017-12-31T05:12:33.820Z,13.38
2017-12-31T05:15:05.825Z,13.52
2017-12-31T05:17:34.383Z,13.55
2017-12-31T05:20:05.556Z,13.56
2017-12-31T05:22:34.165Z,13.54
2017-12-31T05:25:06.741Z,13.51
2017-12-31T05:27:35.400Z,13.63
2017-12-31T05:30:06.592Z,13.67
2017-12-31T05:32:35.094Z,13.68
2017-12-31T05:35:07.182Z,13.78
2017-12-31T05:37:35.864Z,13.76
2017-12-31T05:40:05.656Z,13.73
2017-12-31T05:42:33.960Z,13.72
2017-12-31T05:45:05.365Z,13.71
2017-12-31T05:47:33.695Z,13.61
2017-12-31T05:50:04.927Z,13.73
2017-12-31T05:52:33.203Z,13.68
2017-12-31T05:55:07.820Z,13.63
2017-12-31T05:57:36.501Z,13.73
2017-12-31T06:00:06.280Z,13.73
2017-12-31T06:02:34.568Z,13.82
2017-12-31T06:05:06.667Z,13.81
2017-12-31T06:07:34.957Z,13.79
2017-12-31T06:10:06.753Z,13.84
2017-12-31T06:12:35.045Z,13.74
2017-12-31T06:15:07.164Z,13.78
2017-12-31T06:17:35.450Z,13.92
2017-12-31T06:20:07.455Z,13.86
2017-12-31T06:22:36.384Z,13.76
2017-12-31T06:25:06.292Z,13.78
2017-12-31T06:27:34.928Z,13.67
2017-12-31T06:30:07.146Z,13.80
2017-12-31T06:32:35.711Z,13.80
2017-12-31T06:35:05.605Z,13.80
2017-12-31T06:37:33.862Z,13.81
2017-12-31T06:40:07.777Z,13.79
2017-12-31T06:42:36.042Z,13.77
2017-12-31T06:45:05.854Z,13.77
2017-12-31T06:47:34.129Z,13.92
2017-12-31T06:50:05.722Z,13.90
2017-12-31T06:52:34.126Z,13.75
2017-12-31T06:55:06.294Z,13.86
2017-12-31T06:57:34.573Z,13.85
2017-12-31T07:00:05.780Z,13.83
2017-12-31T07:02:34.594Z,13.82
2017-12-31T07:05:05.621Z,13.83
2017-12-31T07:07:33.896Z,13.92
2017-12-31T07:10:05.354Z,13.85
2017-12-31T07:12:33.640Z,13.79
2017-12-31T07:15:05.266Z,14.00
2017-12-31T07:17:33.819Z,13.97
2017-12-31T07:20:06.496Z,14.06
2017-12-31T07:22:34.772Z,13.87
2017-12-31T07:25:05.669Z,14.00
2017-12-31T07:27:33.933Z,13.96
2017-12-31T07:30:05.456Z,13.93
2017-12-31T07:32:33.716Z,13.91
2017-12-31T07:35:08.730Z,13.98
2017-12-31T07:37:37.020Z,13.96
2017-12-31T07:40:06.407Z,13.96
2017-12-31T07:42:34.933Z,13.95
2017-12-31T07:45:05.664Z,13.92
2017-12-31T07:47:33.959Z,13.93
2017-12-31T07:50:05.425Z,13.86
2017-12-31T07:52:34.308Z,13.92
2017-12-31T07:55:06.352Z,13.90
2017-12-31T07:57:34.627Z,13.80
2017-12-31T08:00:05.696Z,13.87
2017-12-31T08:02:33.984Z,13.86
2017-12-31T08:05:05.497Z,13.78
2017-12-31T08:07:33.756Z,13.84
2017-12-31T08:10:08.822Z,13.84
2017-12-31T08:12:37.096Z,13.83
2017-12-31T08:15:06.100Z,13.89
2017-12-31T08:17:34.379Z,13.97
2017-12-31T08:20:06.371Z,14.09
2017-12-31T08:22:34.642Z,14.02
2017-12-31T08:25:06.708Z,14.04
2017-12-31T08:27:34.941Z,14.07
2017-12-31T08:30:06.334Z,13.97
2017-12-31T08:32:35.588Z,14.08
2017-12-31T08:35:06.795Z,14.07
2017-12-31T08:37:35.260Z,14.15
2017-12-31T08:40:07.149Z,14.14
2017-12-31T08:42:35.435Z,14.14
2017-12-31T08:45:06.744Z,14.14
2017-12-31T08:47:35.052Z,14.10
2017-12-31T08:50:07.208Z,14.14
2017-12-31T08:52:35.499Z,14.15
2017-12-31T08:55:06.681Z,14.16
2017-12-31T08:57:34.958Z,14.15
2017-12-31T09:00:06.405Z,14.31
2017-12-31T09:02:35.424Z,14.26
2017-12-31T09:05:07.736Z,14.30
2017-12-31T09:07:36.015Z,14.28
2017-12-31T09:10:05.809Z,14.24
2017-12-31T09:12:34.082Z,14.31
2017-12-31T09:15:06.220Z,14.29
2017-12-31T09:17:34.495Z,14.33
2017-12-31T09:20:05.929Z,14.30
2017-12-31T09:22:34.194Z,14.26
2017-12-31T09:25:07.553Z,14.23
2017-12-31T09:27:36.073Z,14.29
2017-12-31T09:30:07.704Z,14.25
2017-12-31T09:32:36.016Z,14.26
2017-12-31T09:35:05.821Z,14.34
2017-12-31T09:37:34.104Z,14.33
2017-12-31T09:40:05.791Z,14.33
2017-12-31T09:42:34.085Z,14.35
2017-12-31T09:45:09.262Z,14.29
2017-12-31T09:47:37.556Z,14.31
2017-12-31T09:50:05.879Z,14.29
2017-12-31T09:52:34.451Z,14.23
2017-12-31T09:55:07.324Z,14.20
2017-12-31T09:57:35.665Z,14.18
2017-12-31T10:00:06.960Z,14.15
2017-12-31T10:02:35.396Z,14.14
2017-12-31T10:05:07.543Z,14.07
2017-12-31T10:07:35.827Z,14.06
2017-12-31T10:10:07.033Z,14.10
2017-12-31T10:12:35.308Z,14.08
2017-12-31T10:15:07.636Z,14.12
2017-12-31T10:17:36.051Z,14.20
2017-12-31T10:20:05.918Z,14.16
2017-12-31T10:22:34.183Z,14.13
2017-12-31T10:25:08.111Z,14.13
2017-12-31T10:27:36.369Z,14.17
2017-12-31T10:30:06.068Z,14.12
2017-12-31T10:32:34.338Z,14.19
2017-12-31T10:35:05.794Z,14.14
2017-12-31T10:37:34.062Z,14.09
2017-12-31T10:40:05.368Z,14.07
2017-12-31T10:42:33.640Z,14.05
2017-12-31T10:45:08.992Z,14.11
2017-12-31T10:47:37.285Z,14.01
2017-12-31T10:50:06.764Z,13.96
2017-12-31T10:52:35.321Z,13.96
2017-12-31T10:55:07.415Z,13.97
2017-12-31T10:57:35.685Z,13.98
2017-12-31T11:00:07.813Z,13.90
2017-12-31T11:02:36.089Z,13.92
2017-12-31T11:05:05.932Z,13.96
2017-12-31T11:07:34.485Z,13.97
2017-12-31T11:10:06.034Z,14.02
2017-12-31T11:12:34.306Z,14.03
2017-12-31T11:15:09.569Z,14.06
2017-12-31T11:17:37.874Z,14.03
2017-12-31T11:20:06.145Z,14.07
2017-12-31T11:22:34.681Z,14.07
2017-12-31T11:25:06.235Z,14.14
2017-12-31T11:27:34.736Z,14.26
2017-12-31T11:30:06.970Z,14.39
2017-12-31T11:32:35.380Z,14.58
2017-12-31T11:35:05.985Z,14.94
2017-12-31T11:37:34.252Z,15.04
2017-12-31T11:40:05.833Z,14.82
2017-12-31T11:42:34.101Z,14.45
2017-12-31T11:45:05.539Z,14.44
2017-12-31T11:47:33.805Z,14.31
2017-12-31T11:50:05.973Z,14.24
2017-12-31T11:52:34.258Z,14.18
2017-12-31T11:55:05.968Z,14.14
2017-12-31T11:57:34.236Z,14.25
2017-12-31T12:00:05.854Z,14.16
2017-12-31T12:02:34.171Z,14.08
2017-12-31T12:05:05.843Z,14.01
2017-12-31T12:07:34.108Z,14.04
2017-12-31T12:10:05.521Z,13.95
2017-12-31T12:12:33.982Z,13.94
2017-12-31T12:15:07.319Z,13.93
2017-12-31T12:17:35.596Z,13.89
2017-12-31T12:20:07.772Z,13.99
2017-12-31T12:22:36.081Z,13.98
2017-12-31T12:25:06.887Z,14.07
2017-12-31T12:27:35.176Z,14.18
2017-12-31T12:30:06.059Z,14.39
2017-12-31T12:32:34.344Z,14.81
2017-12-31T12:35:05.988Z,15.27
2017-12-31T12:37:34.281Z,15.26
2017-12-31T12:40:06.393Z,15.09
2017-12-31T12:42:35.731Z,14.96
2017-12-31T12:45:07.898Z,15.07
2017-12-31T12:47:36.163Z,15.67
2017-12-31T12:50:06.351Z,15.67
2017-12-31T12:52:35.188Z,15.58
2017-12-31T12:55:07.104Z,15.62
2017-12-31T12:57:35.389Z,15.31
2017-12-31T13:00:06.842Z,15.30
2017-12-31T13:02:35.582Z,15.19
2017-12-31T13:05:08.555Z,15.56
2017-12-31T13:07:36.820Z,15.94
2017-12-31T13:10:06.864Z,16.72
2017-12-31T13:12:35.128Z,16.22
2017-12-31T13:15:07.300Z,16.05
2017-12-31T13:17:35.604Z,16.07
2017-12-31T13:20:07.744Z,16.14
2017-12-31T13:22:36.019Z,16.17
2017-12-31T13:25:07.839Z,16.29
2017-12-31T13:27:40.352Z,15.97
2017-12-31T13:30:08.652Z,16.07
2017-12-31T13:32:36.940Z,15.90
2017-12-31T13:35:06.448Z,15.78
2017-12-31T13:37:34.902Z,16.01
2017-12-31T13:40:07.049Z,15.85
2017-12-31T13:42:35.312Z,15.76
2017-12-31T13:45:06.230Z,15.56
2017-12-31T13:47:34.496Z,15.31
2017-12-31T13:50:06.260Z,15.42
2017-12-31T13:52:34.873Z,15.49
2017-12-31T13:55:06.788Z,15.30
2017-12-31T13:57:35.045Z,15.28
2017-12-31T14:00:06.461Z,15.49
2017-12-31T14:02:34.733Z,15.42
2017-12-31T14:05:08.665Z,15.40
2017-12-31T14:07:36.961Z,15.47
2017-12-31T14:10:10.773Z,15.49
2017-12-31T14:12:39.073Z,15.39
2017-12-31T14:15:07.351Z,15.26
2017-12-31T14:17:35.838Z,15.20
2017-12-31T14:20:08.492Z,15.17
2017-12-31T14:22:36.805Z,15.24
2017-12-31T14:25:08.024Z,15.24
2017-12-31T14:27:36.351Z,15.22
2017-12-31T14:30:07.556Z,15.21
2017-12-31T14:32:35.853Z,15.13
2017-12-31T14:35:07.040Z,15.22
2017-12-31T14:37:35.316Z,15.18
2017-12-31T14:40:07.444Z,15.11
2017-12-31T14:42:35.738Z,15.00
2017-12-31T14:45:06.938Z,15.00
2017-12-31T14:47:35.249Z,14.97
2017-12-31T14:50:07.526Z,14.99
2017-12-31T14:52:35.749Z,15.02
2017-12-31T14:55:07.856Z,15.00
2017-12-31T14:57:36.125Z,14.97
2017-12-31T15:00:06.870Z,15.01
2017-12-31T15:02:35.150Z,14.97
2017-12-31T15:05:06.467Z,14.92
2017-12-31T15:07:34.729Z,14.90
2017-12-31T15:10:06.398Z,14.92
2017-12-31T15:12:34.685Z,14.96
2017-12-31T15:15:06.053Z,14.98
2017-12-31T15:17:34.376Z,14.97
2017-12-31T15:20:09.418Z,14.92
2017-12-31T15:22:37.664Z,14.91
2017-12-31T15:25:06.265Z,14.89
2017-12-31T15:27:34.677Z,14.93
2017-12-31T15:30:09.687Z,14.92
2017-12-31T15:32:37.997Z,14.95
2017-12-31T15:35:06.273Z,14.92
2017-12-31T15:37:34.572Z,14.92
2017-12-31T15:40:06.061Z,14.92
2017-12-31T15:42:34.572Z,14.90
2017-12-31T15:45:09.707Z,14.88
2017-12-31T15:47:37.981Z,14.80
2017-12-31T15:50:06.499Z,14.89
2017-12-31T15:52:34.779Z,14.88
2017-12-31T15:55:09.839Z,14.89
2017-12-31T15:57:38.754Z,14.86
2017-12-31T16:00:06.999Z,14.88
2017-12-31T16:02:35.284Z,14.90
2017-12-31T16:05:06.687Z,14.90
2017-12-31T16:07:34.966Z,14.85
2017-12-31T16:10:07.063Z,14.88
2017-12-31T16:12:35.592Z,14.89
2017-12-31T16:15:06.821Z,14.95
2017-12-31T16:17:35.109Z,14.92
2017-12-31T16:20:06.533Z,14.88
2017-12-31T16:22:34.812Z,14.91
2017-12-31T16:25:06.607Z,14.93
2017-12-31T16:27:35.876Z,14.91
2017-12-31T16:30:07.450Z,14.87
2017-12-31T16:32:35.864Z,14.83
2017-12-31T16:35:08.463Z,14.82
2017-12-31T16:37:36.754Z,14.83
2017-12-31T16:40:06.288Z,14.79
2017-12-31T16:42:34.572Z,14.76
2017-12-31T16:45:05.923Z,14.74
2017-12-31T16:47:34.276Z,14.76
2017-12-31T16:50:09.280Z,14.81
2017-12-31T16:52:37.573Z,14.83
2017-12-31T16:55:08.182Z,14.88
2017-12-31T16:57:36.442Z,14.92
2017-12-31T17:00:06.587Z,14.88
2017-12-31T17:02:34.909Z,14.94
2017-12-31T17:05:08.968Z,14.91
2017-12-31T17:07:37.244Z,14.89
2017-12-31T17:10:06.968Z,14.83
2017-12-31T17:12:35.371Z,14.87
2017-12-31T17:15:06.780Z,14.98
2017-12-31T17:17:35.040Z,14.97
2017-12-31T17:20:07.136Z,14.88
2017-12-31T17:22:35.413Z,14.89
2017-12-31T17:25:06.775Z,14.84
2017-12-31T17:27:35.036Z,14.89
2017-12-31T17:30:06.436Z,14.87
2017-12-31T17:32:34.716Z,14.90
2017-12-31T17:35:09.762Z,14.86
2017-12-31T17:37:38.053Z,14.81
2017-12-31T17:40:06.420Z,14.97
2017-12-31T17:42:34.707Z,14.94
2017-12-31T17:45:06.203Z,14.96
2017-12-31T17:47:34.516Z,14.92
2017-12-31T17:50:09.620Z,14.83
2017-12-31T17:52:37.907Z,14.93
2017-12-31T17:55:06.640Z,14.95
2017-12-31T17:57:34.929Z,14.86
2017-12-31T18:00:07.076Z,14.87
2017-12-31T18:02:35.356Z,14.91
2017-12-31T18:05:08.410Z,14.92
2017-12-31T18:07:37.231Z,14.83
2017-12-31T18:10:06.852Z,14.85
2017-12-31T18:12:35.152Z,14.76
2017-12-31T18:15:09.328Z,14.84
2017-12-31T18:17:37.617Z,14.84
2017-12-31T18:20:07.168Z,14.86
2017-12-31T18:22:35.677Z,14.81
2017-12-31T18:25:07.676Z,14.84
2017-12-31T18:27:35.943Z,14.80
2017-12-31T18:30:08.081Z,14.81
2017-12-31T18:32:36.342Z,14.81
2017-12-31T18:35:08.259Z,14.79
2017-12-31T18:37:36.524Z,14.75
2017-12-31T18:40:06.428Z,14.73
2017-12-31T18:42:34.745Z,14.74
2017-12-31T18:45:06.448Z,14.74
2017-12-31T18:47:35.320Z,14.75
2017-12-31T18:50:06.513Z,14.74
2017-12-31T18:52:34.812Z,14.80
2017-12-31T18:55:09.960Z,14.75
2017-12-31T18:57:38.272Z,14.67
2017-12-31T19:00:06.549Z,14.71
2017-12-31T19:02:34.853Z,14.70
2017-12-31T19:05:06.383Z,14.70
2017-12-31T19:07:35.183Z,14.69
2017-12-31T19:10:07.236Z,14.68
2017-12-31T19:12:35.705Z,14.58
2017-12-31T19:15:07.616Z,14.56
2017-12-31T19:17:35.899Z,14.59
2017-12-31T19:20:06.450Z,14.55
2017-12-31T19:22:34.757Z,14.49
2017-12-31T19:25:08.010Z,14.59
2017-12-31T19:27:36.274Z,14.57
2017-12-31T19:30:07.704Z,14.56
2017-12-31T19:32:36.200Z,14.48
2017-12-31T19:35:08.188Z,14.54
2017-12-31T19:37:36.883Z,14.53
2017-12-31T19:40:06.767Z,14.53
2017-12-31T19:42:35.041Z,14.52
2017-12-31T19:45:07.181Z,14.51
2017-12-31T19:47:35.668Z,14.57
2017-12-31T19:50:05.815Z,14.57
2017-12-31T19:52:34.112Z,14.65
2017-12-31T19:55:06.204Z,14.58
2017-12-31T19:57:35.036Z,14.60
2017-12-31T20:00:06.676Z,14.57
2017-12-31T20:02:34.950Z,14.52
2017-12-31T20:05:07.073Z,14.56
2017-12-31T20:07:35.442Z,14.50
2017-12-31T20:10:06.636Z,14.61
2017-12-31T20:12:34.924Z,14.57
2017-12-31T20:15:06.140Z,14.54
2017-12-31T20:17:34.480Z,14.51
2017-12-31T20:20:06.952Z,14.47
2017-12-31T20:22:35.216Z,14.53
2017-12-31T20:25:06.827Z,14.52
2017-12-31T20:27:35.119Z,14.54
2017-12-31T20:30:07.532Z,14.51
2017-12-31T20:32:35.816Z,14.52
2017-12-31T20:35:05.718Z,14.50
2017-12-31T20:37:34.098Z,14.47
2017-12-31T20:40:09.085Z,14.42
2017-12-31T20:42:37.684Z,14.43
2017-12-31T20:45:06.100Z,14.41
2017-12-31T20:47:34.372Z,14.34
2017-12-31T20:50:05.569Z,14.26
2017-12-31T20:52:33.840Z,14.25
2017-12-31T20:55:05.236Z,14.01
2017-12-31T20:57:33.517Z,13.42
2017-12-31T21:00:08.576Z,13.10
2017-12-31T21:02:36.848Z,12.84
2017-12-31T21:05:06.426Z,12.74
2017-12-31T21:07:34.717Z,12.78
2017-12-31T21:10:06.849Z,12.68
2017-12-31T21:12:35.162Z,12.71
2017-12-31T21:15:06.864Z,12.66
2017-12-31T21:17:35.147Z,12.60
2017-12-31T21:20:07.504Z,12.58
2017-12-31T21:22:36.069Z,12.59
2017-12-31T21:25:05.838Z,12.57
2017-12-31T21:27:34.361Z,12.56
2017-12-31T21:30:05.558Z,12.53
2017-12-31T21:32:33.834Z,12.52
2017-12-31T21:35:07.828Z,12.55
2017-12-31T21:37:36.104Z,12.53
2017-12-31T21:40:06.024Z,12.41
2017-12-31T21:42:34.409Z,12.40
2017-12-31T21:45:06.324Z,12.30
2017-12-31T21:47:34.613Z,12.30
2017-12-31T21:50:05.636Z,12.30
2017-12-31T21:52:34.056Z,12.35
2017-12-31T21:55:09.219Z,12.36
2017-12-31T21:57:37.509Z,12.38
2017-12-31T22:00:05.805Z,12.26
2017-12-31T22:02:34.324Z,12.28
2017-12-31T22:05:05.687Z,12.29
2017-12-31T22:07:33.952Z,12.25
2017-12-31T22:10:05.482Z,12.24
2017-12-31T22:12:33.868Z,12.32
2017-12-31T22:15:05.095Z,12.37
2017-12-31T22:17:33.401Z,12.29
2017-12-31T22:20:05.111Z,12.33
2017-12-31T22:22:34.357Z,12.30
2017-12-31T22:25:06.356Z,12.19
2017-12-31T22:27:34.647Z,12.21
2017-12-31T22:30:05.734Z,12.23
2017-12-31T22:32:33.997Z,12.12
2017-12-31T22:35:05.628Z,12.07
2017-12-31T22:37:33.951Z,12.16
2017-12-31T22:40:09.221Z,12.25
2017-12-31T22:42:37.508Z,12.32
2017-12-31T22:45:06.128Z,12.34
2017-12-31T22:47:34.424Z,12.25
2017-12-31T22:50:05.708Z,12.28
2017-12-31T22:52:33.980Z,12.31
2017-12-31T22:55:07.797Z,12.32
2017-12-31T22:57:36.199Z,12.37
2017-12-31T23:00:05.956Z,12.33
2017-12-31T23:02:34.285Z,12.42
2017-12-31T23:05:05.709Z,12.34
2017-12-31T23:07:34.007Z,12.30
2017-12-31T23:10:07.235Z,12.21
2017-12-31T23:12:35.536Z,12.38
2017-12-31T23:15:05.925Z,12.45
2017-12-31T23:17:34.211Z,12.29
2017-12-31T23:20:10.312Z,12.24
2017-12-31T23:22:38.664Z,12.21
2017-12-31T23:25:06.950Z,12.15
2017-12-31T23:27:35.273Z,12.17
2017-12-31T23:30:06.639Z,12.09
2017-12-31T23:32:34.936Z,12.04
2017-12-31T23:35:08.963Z,12.03
2017-12-31T23:37:37.216Z,12.00
2017-12-31T23:40:06.314Z,12.00
2017-12-31T23:42:34.617Z,11.99
2017-12-31T23:45:06.600Z,12.01
2017-12-31T23:47:35.111Z,12.00
2017-12-31T23:50:07.202Z,11.99
2017-12-31T23:52:35.800Z,11.93
2017-12-31T23:55:07.597Z,11.97
2017-12-31T23:57:35.896Z,11.90
